sensor_id;sensor_type;location;lat;lon;timestamp;P1;durP1;ratioP1;P2;durP2;ratioP2
34900;SDS011;21112;51.976;5.660;2022-10-30T00:02:13;8.20;;;3.28;;
34900;SDS011;21112;51.976;5.660;2022-10-30T00:04:41;9.32;;;3.55;;
34900;SDS011;21112;51.976;5.660;2022-10-30T00:07:07;10.35;;;3.70;;
34900;SDS011;21112;51.976;5.660;2022-10-30T00:09:35;9.77;;;3.40;;
34900;SDS011;21112;51.976;5.660;2022-10-30T00:12:02;7.63;;;3.30;;
34900;SDS011;21112;51.976;5.660;2022-10-30T00:14:29;7.18;;;3.53;;
34900;SDS011;21112;51.976;5.660;2022-10-30T00:16:56;7.78;;;3.40;;
34900;SDS011;21112;51.976;5.660;2022-10-30T00:19:22;7.47;;;3.42;;
34900;SDS011;21112;51.976;5.660;2022-10-30T00:21:49;7.10;;;3.08;;
34900;SDS011;21112;51.976;5.660;2022-10-30T00:24:15;8.45;;;3.30;;
34900;SDS011;21112;51.976;5.660;2022-10-30T00:26:43;7.90;;;3.45;;
34900;SDS011;21112;51.976;5.660;2022-10-30T00:29:10;9.30;;;3.67;;
34900;SDS011;21112;51.976;5.660;2022-10-30T00:31:36;7.60;;;3.67;;
34900;SDS011;21112;51.976;5.660;2022-10-30T00:34:03;7.95;;;3.30;;
34900;SDS011;21112;51.976;5.660;2022-10-30T00:36:29;8.00;;;3.22;;
34900;SDS011;21112;51.976;5.660;2022-10-30T00:38:56;9.85;;;3.50;;
34900;SDS011;21112;51.976;5.660;2022-10-30T00:41:23;11.60;;;4.25;;
34900;SDS011;21112;51.976;5.660;2022-10-30T00:43:51;7.95;;;3.33;;
34900;SDS011;21112;51.976;5.660;2022-10-30T00:46:18;8.38;;;3.38;;
34900;SDS011;21112;51.976;5.660;2022-10-30T00:48:47;7.75;;;3.22;;
34900;SDS011;21112;51.976;5.660;2022-10-30T00:51:14;8.95;;;3.47;;
34900;SDS011;21112;51.976;5.660;2022-10-30T00:53:42;6.88;;;2.88;;
34900;SDS011;21112;51.976;5.660;2022-10-30T00:56:09;6.97;;;3.10;;
34900;SDS011;21112;51.976;5.660;2022-10-30T00:58:37;9.93;;;4.25;;
34900;SDS011;21112;51.976;5.660;2022-10-30T01:01:06;17.70;;;4.88;;
34900;SDS011;21112;51.976;5.660;2022-10-30T01:03:35;8.45;;;3.60;;
34900;SDS011;21112;51.976;5.660;2022-10-30T01:06:03;7.53;;;3.63;;
34900;SDS011;21112;51.976;5.660;2022-10-30T01:08:32;9.48;;;3.30;;
34900;SDS011;21112;51.976;5.660;2022-10-30T01:10:59;7.22;;;3.28;;
34900;SDS011;21112;51.976;5.660;2022-10-30T01:13:27;8.40;;;3.30;;
34900;SDS011;21112;51.976;5.660;2022-10-30T01:15:59;7.30;;;2.95;;
34900;SDS011;21112;51.976;5.660;2022-10-30T01:18:34;7.57;;;3.50;;
34900;SDS011;21112;51.976;5.660;2022-10-30T01:21:11;8.93;;;3.15;;
34900;SDS011;21112;51.976;5.660;2022-10-30T01:23:43;11.02;;;3.05;;
34900;SDS011;21112;51.976;5.660;2022-10-30T01:26:16;9.50;;;2.97;;
34900;SDS011;21112;51.976;5.660;2022-10-30T01:28:49;8.30;;;3.05;;
34900;SDS011;21112;51.976;5.660;2022-10-30T01:31:22;8.70;;;3.13;;
34900;SDS011;21112;51.976;5.660;2022-10-30T01:33:56;5.72;;;2.70;;
34900;SDS011;21112;51.976;5.660;2022-10-30T01:36:27;7.28;;;2.90;;
34900;SDS011;21112;51.976;5.660;2022-10-30T01:38:56;9.73;;;4.07;;
34900;SDS011;21112;51.976;5.660;2022-10-30T01:41:23;7.63;;;3.30;;
34900;SDS011;21112;51.976;5.660;2022-10-30T01:43:52;8.82;;;2.97;;
34900;SDS011;21112;51.976;5.660;2022-10-30T01:46:24;7.78;;;3.47;;
34900;SDS011;21112;51.976;5.660;2022-10-30T01:49:04;7.47;;;3.10;;
34900;SDS011;21112;51.976;5.660;2022-10-30T01:51:38;11.38;;;3.42;;
34900;SDS011;21112;51.976;5.660;2022-10-30T01:54:08;7.60;;;3.28;;
34900;SDS011;21112;51.976;5.660;2022-10-30T01:56:42;9.10;;;3.35;;
34900;SDS011;21112;51.976;5.660;2022-10-30T01:59:12;8.55;;;3.05;;
34900;SDS011;21112;51.976;5.660;2022-10-30T02:01:40;5.88;;;2.83;;
34900;SDS011;21112;51.976;5.660;2022-10-30T02:04:08;14.68;;;3.67;;
34900;SDS011;21112;51.976;5.660;2022-10-30T02:06:35;6.30;;;3.10;;
34900;SDS011;21112;51.976;5.660;2022-10-30T02:09:02;9.65;;;3.13;;
34900;SDS011;21112;51.976;5.660;2022-10-30T02:11:29;8.20;;;3.13;;
34900;SDS011;21112;51.976;5.660;2022-10-30T02:13:58;9.25;;;3.03;;
34900;SDS011;21112;51.976;5.660;2022-10-30T02:16:28;6.95;;;3.20;;
34900;SDS011;21112;51.976;5.660;2022-10-30T02:18:55;8.30;;;3.28;;
34900;SDS011;21112;51.976;5.660;2022-10-30T02:21:23;8.95;;;3.30;;
34900;SDS011;21112;51.976;5.660;2022-10-30T02:23:50;5.57;;;2.83;;
34900;SDS011;21112;51.976;5.660;2022-10-30T02:26:17;8.35;;;3.47;;
34900;SDS011;21112;51.976;5.660;2022-10-30T02:28:43;8.65;;;3.15;;
34900;SDS011;21112;51.976;5.660;2022-10-30T02:31:10;9.52;;;3.30;;
34900;SDS011;21112;51.976;5.660;2022-10-30T02:33:36;7.47;;;3.03;;
34900;SDS011;21112;51.976;5.660;2022-10-30T02:36:03;5.43;;;2.75;;
34900;SDS011;21112;51.976;5.660;2022-10-30T02:38:31;8.88;;;3.80;;
34900;SDS011;21112;51.976;5.660;2022-10-30T02:40:57;8.38;;;3.50;;
34900;SDS011;21112;51.976;5.660;2022-10-30T02:43:24;6.13;;;2.72;;
34900;SDS011;21112;51.976;5.660;2022-10-30T02:45:51;6.18;;;2.75;;
34900;SDS011;21112;51.976;5.660;2022-10-30T02:48:17;6.82;;;2.92;;
34900;SDS011;21112;51.976;5.660;2022-10-30T02:55:51;5.32;;;2.53;;
34900;SDS011;21112;51.976;5.660;2022-10-30T02:58:18;7.15;;;3.08;;
34900;SDS011;21112;51.976;5.660;2022-10-30T03:00:44;11.35;;;3.00;;
34900;SDS011;21112;51.976;5.660;2022-10-30T03:03:11;9.27;;;3.13;;
34900;SDS011;21112;51.976;5.660;2022-10-30T03:05:38;7.85;;;3.30;;
34900;SDS011;21112;51.976;5.660;2022-10-30T03:08:04;8.00;;;3.08;;
34900;SDS011;21112;51.976;5.660;2022-10-30T03:10:31;9.45;;;3.25;;
34900;SDS011;21112;51.976;5.660;2022-10-30T03:12:59;8.10;;;3.22;;
34900;SDS011;21112;51.976;5.660;2022-10-30T03:15:26;10.02;;;3.50;;
34900;SDS011;21112;51.976;5.660;2022-10-30T03:17:52;8.27;;;3.15;;
34900;SDS011;21112;51.976;5.660;2022-10-30T03:20:19;6.10;;;3.13;;
34900;SDS011;21112;51.976;5.660;2022-10-30T03:22:46;14.10;;;4.95;;
34900;SDS011;21112;51.976;5.660;2022-10-30T03:25:12;8.02;;;3.30;;
34900;SDS011;21112;51.976;5.660;2022-10-30T03:27:39;8.43;;;2.88;;
34900;SDS011;21112;51.976;5.660;2022-10-30T03:30:08;7.80;;;3.22;;
34900;SDS011;21112;51.976;5.660;2022-10-30T03:32:35;12.70;;;4.30;;
34900;SDS011;21112;51.976;5.660;2022-10-30T03:35:01;5.97;;;2.67;;
34900;SDS011;21112;51.976;5.660;2022-10-30T03:37:28;9.02;;;3.78;;
34900;SDS011;21112;51.976;5.660;2022-10-30T03:39:55;8.63;;;3.22;;
34900;SDS011;21112;51.976;5.660;2022-10-30T03:42:21;6.78;;;3.13;;
34900;SDS011;21112;51.976;5.660;2022-10-30T03:44:50;7.22;;;2.63;;
34900;SDS011;21112;51.976;5.660;2022-10-30T03:47:18;11.40;;;3.03;;
34900;SDS011;21112;51.976;5.660;2022-10-30T03:49:45;7.18;;;3.08;;
34900;SDS011;21112;51.976;5.660;2022-10-30T03:52:11;6.50;;;3.00;;
34900;SDS011;21112;51.976;5.660;2022-10-30T03:57:06;7.03;;;2.97;;
34900;SDS011;21112;51.976;5.660;2022-10-30T03:59:33;6.88;;;2.90;;
34900;SDS011;21112;51.976;5.660;2022-10-30T04:01:59;7.32;;;2.80;;
34900;SDS011;21112;51.976;5.660;2022-10-30T04:04:31;6.20;;;2.72;;
34900;SDS011;21112;51.976;5.660;2022-10-30T04:06:57;7.15;;;2.90;;
34900;SDS011;21112;51.976;5.660;2022-10-30T04:09:24;7.80;;;2.90;;
34900;SDS011;21112;51.976;5.660;2022-10-30T04:11:50;5.85;;;2.60;;
34900;SDS011;21112;51.976;5.660;2022-10-30T04:14:17;7.60;;;2.90;;
34900;SDS011;21112;51.976;5.660;2022-10-30T04:16:43;6.03;;;2.67;;
34900;SDS011;21112;51.976;5.660;2022-10-30T04:19:10;7.60;;;3.00;;
34900;SDS011;21112;51.976;5.660;2022-10-30T04:21:38;6.35;;;2.70;;
34900;SDS011;21112;51.976;5.660;2022-10-30T04:24:07;6.57;;;2.58;;
34900;SDS011;21112;51.976;5.660;2022-10-30T04:26:34;8.10;;;3.10;;
34900;SDS011;21112;51.976;5.660;2022-10-30T04:29:00;9.27;;;2.90;;
34900;SDS011;21112;51.976;5.660;2022-10-30T04:31:27;5.47;;;2.33;;
34900;SDS011;21112;51.976;5.660;2022-10-30T04:33:54;6.93;;;3.05;;
34900;SDS011;21112;51.976;5.660;2022-10-30T04:36:21;9.57;;;2.95;;
34900;SDS011;21112;51.976;5.660;2022-10-30T04:38:55;14.90;;;4.40;;
34900;SDS011;21112;51.976;5.660;2022-10-30T04:41:22;8.43;;;3.00;;
34900;SDS011;21112;51.976;5.660;2022-10-30T04:43:49;7.28;;;2.90;;
34900;SDS011;21112;51.976;5.660;2022-10-30T04:46:16;7.35;;;3.40;;
34900;SDS011;21112;51.976;5.660;2022-10-30T04:48:42;8.77;;;3.00;;
34900;SDS011;21112;51.976;5.660;2022-10-30T04:51:09;10.95;;;3.05;;
34900;SDS011;21112;51.976;5.660;2022-10-30T04:53:36;7.50;;;3.08;;
34900;SDS011;21112;51.976;5.660;2022-10-30T04:56:04;6.22;;;2.72;;
34900;SDS011;21112;51.976;5.660;2022-10-30T04:58:31;8.13;;;2.85;;
34900;SDS011;21112;51.976;5.660;2022-10-30T05:00:59;12.43;;;3.63;;
34900;SDS011;21112;51.976;5.660;2022-10-30T05:03:26;9.40;;;3.20;;
34900;SDS011;21112;51.976;5.660;2022-10-30T05:05:54;9.95;;;4.00;;
34900;SDS011;21112;51.976;5.660;2022-10-30T05:08:22;6.22;;;2.80;;
34900;SDS011;21112;51.976;5.660;2022-10-30T05:10:48;14.45;;;4.20;;
34900;SDS011;21112;51.976;5.660;2022-10-30T05:13:17;7.72;;;3.40;;
34900;SDS011;21112;51.976;5.660;2022-10-30T05:18:14;5.70;;;2.55;;
34900;SDS011;21112;51.976;5.660;2022-10-30T05:20:40;7.85;;;2.88;;
34900;SDS011;21112;51.976;5.660;2022-10-30T05:23:07;8.57;;;3.10;;
34900;SDS011;21112;51.976;5.660;2022-10-30T05:25:35;5.43;;;2.72;;
34900;SDS011;21112;51.976;5.660;2022-10-30T05:28:02;8.10;;;2.92;;
34900;SDS011;21112;51.976;5.660;2022-10-30T05:30:31;5.75;;;2.65;;
34900;SDS011;21112;51.976;5.660;2022-10-30T05:35:25;6.57;;;2.75;;
34900;SDS011;21112;51.976;5.660;2022-10-30T05:37:52;8.38;;;2.85;;
34900;SDS011;21112;51.976;5.660;2022-10-30T05:40:18;7.50;;;2.85;;
34900;SDS011;21112;51.976;5.660;2022-10-30T05:42:45;9.45;;;2.58;;
34900;SDS011;21112;51.976;5.660;2022-10-30T05:45:15;6.80;;;3.15;;
34900;SDS011;21112;51.976;5.660;2022-10-30T05:47:43;7.38;;;2.55;;
34900;SDS011;21112;51.976;5.660;2022-10-30T05:50:10;6.07;;;2.85;;
34900;SDS011;21112;51.976;5.660;2022-10-30T05:52:37;5.55;;;2.53;;
34900;SDS011;21112;51.976;5.660;2022-10-30T05:55:04;6.32;;;2.90;;
34900;SDS011;21112;51.976;5.660;2022-10-30T05:57:31;7.50;;;3.00;;
34900;SDS011;21112;51.976;5.660;2022-10-30T05:59:58;6.97;;;2.88;;
34900;SDS011;21112;51.976;5.660;2022-10-30T06:02:24;8.68;;;2.70;;
34900;SDS011;21112;51.976;5.660;2022-10-30T06:04:53;9.68;;;3.83;;
34900;SDS011;21112;51.976;5.660;2022-10-30T06:07:20;11.60;;;3.88;;
34900;SDS011;21112;51.976;5.660;2022-10-30T06:09:47;15.23;;;3.25;;
34900;SDS011;21112;51.976;5.660;2022-10-30T06:12:13;6.68;;;3.13;;
34900;SDS011;21112;51.976;5.660;2022-10-30T06:14:42;6.38;;;3.15;;
34900;SDS011;21112;51.976;5.660;2022-10-30T06:19:35;15.10;;;3.20;;
34900;SDS011;21112;51.976;5.660;2022-10-30T06:22:03;7.38;;;2.90;;
34900;SDS011;21112;51.976;5.660;2022-10-30T06:24:30;6.82;;;2.75;;
34900;SDS011;21112;51.976;5.660;2022-10-30T06:26:56;8.55;;;2.88;;
34900;SDS011;21112;51.976;5.660;2022-10-30T06:29:23;9.20;;;3.10;;
34900;SDS011;21112;51.976;5.660;2022-10-30T06:31:49;6.88;;;3.20;;
34900;SDS011;21112;51.976;5.660;2022-10-30T06:34:16;13.68;;;4.05;;
34900;SDS011;21112;51.976;5.660;2022-10-30T06:36:43;9.40;;;3.25;;
34900;SDS011;21112;51.976;5.660;2022-10-30T06:39:12;6.57;;;2.83;;
34900;SDS011;21112;51.976;5.660;2022-10-30T06:41:39;6.28;;;2.80;;
34900;SDS011;21112;51.976;5.660;2022-10-30T06:44:06;11.27;;;3.00;;
34900;SDS011;21112;51.976;5.660;2022-10-30T06:46:32;7.45;;;2.83;;
34900;SDS011;21112;51.976;5.660;2022-10-30T06:48:59;6.25;;;2.83;;
34900;SDS011;21112;51.976;5.660;2022-10-30T06:51:25;6.60;;;2.78;;
34900;SDS011;21112;51.976;5.660;2022-10-30T06:53:53;6.32;;;2.92;;
34900;SDS011;21112;51.976;5.660;2022-10-30T06:56:21;6.57;;;2.97;;
34900;SDS011;21112;51.976;5.660;2022-10-30T06:58:48;7.13;;;3.13;;
34900;SDS011;21112;51.976;5.660;2022-10-30T07:01:14;6.55;;;2.78;;
34900;SDS011;21112;51.976;5.660;2022-10-30T07:03:43;6.40;;;2.50;;
34900;SDS011;21112;51.976;5.660;2022-10-30T07:06:09;17.33;;;4.65;;
34900;SDS011;21112;51.976;5.660;2022-10-30T07:08:36;13.02;;;4.38;;
34900;SDS011;21112;51.976;5.660;2022-10-30T07:11:02;6.80;;;3.08;;
34900;SDS011;21112;51.976;5.660;2022-10-30T07:13:30;10.82;;;3.42;;
34900;SDS011;21112;51.976;5.660;2022-10-30T07:18:24;8.75;;;3.88;;
34900;SDS011;21112;51.976;5.660;2022-10-30T07:20:52;8.80;;;3.42;;
34900;SDS011;21112;51.976;5.660;2022-10-30T07:23:19;7.68;;;3.22;;
34900;SDS011;21112;51.976;5.660;2022-10-30T07:25:46;6.75;;;2.88;;
34900;SDS011;21112;51.976;5.660;2022-10-30T07:28:13;10.13;;;3.03;;
34900;SDS011;21112;51.976;5.660;2022-10-30T07:30:41;6.65;;;3.10;;
34900;SDS011;21112;51.976;5.660;2022-10-30T07:33:08;9.00;;;2.95;;
34900;SDS011;21112;51.976;5.660;2022-10-30T07:35:36;5.95;;;2.60;;
34900;SDS011;21112;51.976;5.660;2022-10-30T07:38:03;7.03;;;2.63;;
34900;SDS011;21112;51.976;5.660;2022-10-30T07:40:30;17.20;;;6.05;;
34900;SDS011;21112;51.976;5.660;2022-10-30T07:42:57;7.22;;;3.25;;
34900;SDS011;21112;51.976;5.660;2022-10-30T07:45:24;9.18;;;3.03;;
34900;SDS011;21112;51.976;5.660;2022-10-30T07:47:52;8.20;;;3.47;;
34900;SDS011;21112;51.976;5.660;2022-10-30T07:50:19;15.98;;;6.40;;
34900;SDS011;21112;51.976;5.660;2022-10-30T07:52:46;17.35;;;7.10;;
34900;SDS011;21112;51.976;5.660;2022-10-30T07:55:12;16.42;;;5.47;;
34900;SDS011;21112;51.976;5.660;2022-10-30T07:57:39;9.68;;;4.53;;
34900;SDS011;21112;51.976;5.660;2022-10-30T08:00:07;11.13;;;4.72;;
34900;SDS011;21112;51.976;5.660;2022-10-30T08:02:34;14.83;;;4.87;;
34900;SDS011;21112;51.976;5.660;2022-10-30T08:05:02;11.80;;;3.90;;
34900;SDS011;21112;51.976;5.660;2022-10-30T08:07:29;9.23;;;3.50;;
34900;SDS011;21112;51.976;5.660;2022-10-30T08:09:56;11.30;;;5.43;;
34900;SDS011;21112;51.976;5.660;2022-10-30T08:12:22;8.02;;;3.97;;
34900;SDS011;21112;51.976;5.660;2022-10-30T08:14:49;10.43;;;4.00;;
34900;SDS011;21112;51.976;5.660;2022-10-30T08:17:16;12.13;;;5.88;;
34900;SDS011;21112;51.976;5.660;2022-10-30T08:19:43;13.95;;;5.72;;
34900;SDS011;21112;51.976;5.660;2022-10-30T08:22:11;16.67;;;6.30;;
34900;SDS011;21112;51.976;5.660;2022-10-30T08:24:38;19.95;;;7.03;;
34900;SDS011;21112;51.976;5.660;2022-10-30T08:27:04;15.93;;;6.63;;
34900;SDS011;21112;51.976;5.660;2022-10-30T08:29:31;11.10;;;4.95;;
34900;SDS011;21112;51.976;5.660;2022-10-30T08:31:58;8.73;;;4.13;;
34900;SDS011;21112;51.976;5.660;2022-10-30T08:34:25;18.65;;;5.97;;
34900;SDS011;21112;51.976;5.660;2022-10-30T08:36:52;11.48;;;4.85;;
34900;SDS011;21112;51.976;5.660;2022-10-30T08:39:20;16.10;;;5.45;;
34900;SDS011;21112;51.976;5.660;2022-10-30T08:41:46;10.68;;;4.50;;
34900;SDS011;21112;51.976;5.660;2022-10-30T08:44:13;13.65;;;5.70;;
34900;SDS011;21112;51.976;5.660;2022-10-30T08:46:40;14.05;;;5.88;;
34900;SDS011;21112;51.976;5.660;2022-10-30T08:49:07;10.30;;;4.32;;
34900;SDS011;21112;51.976;5.660;2022-10-30T08:51:33;19.13;;;6.63;;
34900;SDS011;21112;51.976;5.660;2022-10-30T08:54:00;17.48;;;7.63;;
34900;SDS011;21112;51.976;5.660;2022-10-30T08:56:28;10.98;;;5.05;;
34900;SDS011;21112;51.976;5.660;2022-10-30T08:58:55;11.57;;;5.28;;
34900;SDS011;21112;51.976;5.660;2022-10-30T09:01:21;10.63;;;4.85;;
34900;SDS011;21112;51.976;5.660;2022-10-30T09:03:48;16.92;;;7.50;;
34900;SDS011;21112;51.976;5.660;2022-10-30T09:06:15;24.13;;;7.18;;
34900;SDS011;21112;51.976;5.660;2022-10-30T09:08:41;10.38;;;4.22;;
34900;SDS011;21112;51.976;5.660;2022-10-30T09:11:08;16.90;;;6.53;;
34900;SDS011;21112;51.976;5.660;2022-10-30T09:13:36;15.18;;;6.43;;
34900;SDS011;21112;51.976;5.660;2022-10-30T09:16:03;12.95;;;5.07;;
34900;SDS011;21112;51.976;5.660;2022-10-30T09:18:30;11.00;;;4.45;;
34900;SDS011;21112;51.976;5.660;2022-10-30T09:20:56;19.77;;;7.68;;
34900;SDS011;21112;51.976;5.660;2022-10-30T09:23:23;23.55;;;6.95;;
34900;SDS011;21112;51.976;5.660;2022-10-30T09:25:49;17.33;;;7.43;;
34900;SDS011;21112;51.976;5.660;2022-10-30T09:28:16;11.10;;;5.20;;
34900;SDS011;21112;51.976;5.660;2022-10-30T09:30:44;13.00;;;5.32;;
34900;SDS011;21112;51.976;5.660;2022-10-30T09:33:13;12.13;;;5.50;;
34900;SDS011;21112;51.976;5.660;2022-10-30T09:35:39;19.48;;;6.13;;
34900;SDS011;21112;51.976;5.660;2022-10-30T09:38:06;17.40;;;6.03;;
34900;SDS011;21112;51.976;5.660;2022-10-30T09:40:39;10.40;;;5.30;;
34900;SDS011;21112;51.976;5.660;2022-10-30T09:43:08;10.48;;;4.60;;
34900;SDS011;21112;51.976;5.660;2022-10-30T09:45:50;18.30;;;7.30;;
34900;SDS011;21112;51.976;5.660;2022-10-30T09:48:31;17.98;;;8.20;;
34900;SDS011;21112;51.976;5.660;2022-10-30T09:51:04;19.80;;;8.05;;
34900;SDS011;21112;51.976;5.660;2022-10-30T09:53:35;26.15;;;8.57;;
34900;SDS011;21112;51.976;5.660;2022-10-30T09:56:08;17.30;;;8.00;;
34900;SDS011;21112;51.976;5.660;2022-10-30T09:58:39;17.50;;;7.35;;
34900;SDS011;21112;51.976;5.660;2022-10-30T10:01:13;19.08;;;7.38;;
34900;SDS011;21112;51.976;5.660;2022-10-30T10:03:48;14.93;;;7.22;;
34900;SDS011;21112;51.976;5.660;2022-10-30T10:06:17;21.10;;;7.63;;
34900;SDS011;21112;51.976;5.660;2022-10-30T10:08:45;19.27;;;6.97;;
34900;SDS011;21112;51.976;5.660;2022-10-30T10:11:14;15.95;;;7.30;;
34900;SDS011;21112;51.976;5.660;2022-10-30T10:13:43;20.77;;;7.25;;
34900;SDS011;21112;51.976;5.660;2022-10-30T10:16:15;15.00;;;6.60;;
34900;SDS011;21112;51.976;5.660;2022-10-30T10:18:45;13.52;;;7.20;;
34900;SDS011;21112;51.976;5.660;2022-10-30T10:21:14;19.27;;;7.32;;
34900;SDS011;21112;51.976;5.660;2022-10-30T10:23:43;21.45;;;7.47;;
34900;SDS011;21112;51.976;5.660;2022-10-30T10:26:16;18.45;;;8.65;;
34900;SDS011;21112;51.976;5.660;2022-10-30T10:28:48;23.80;;;8.80;;
34900;SDS011;21112;51.976;5.660;2022-10-30T10:31:25;16.67;;;7.75;;
34900;SDS011;21112;51.976;5.660;2022-10-30T10:34:04;20.55;;;8.10;;
34900;SDS011;21112;51.976;5.660;2022-10-30T10:36:37;22.85;;;9.93;;
34900;SDS011;21112;51.976;5.660;2022-10-30T10:39:14;20.85;;;8.45;;
34900;SDS011;21112;51.976;5.660;2022-10-30T10:44:33;17.00;;;7.55;;
34900;SDS011;21112;51.976;5.660;2022-10-30T10:47:07;22.52;;;7.88;;
34900;SDS011;21112;51.976;5.660;2022-10-30T10:49:38;22.10;;;9.32;;
34900;SDS011;21112;51.976;5.660;2022-10-30T10:52:07;20.33;;;8.35;;
34900;SDS011;21112;51.976;5.660;2022-10-30T10:54:35;19.83;;;9.18;;
34900;SDS011;21112;51.976;5.660;2022-10-30T10:57:04;18.50;;;8.80;;
34900;SDS011;21112;51.976;5.660;2022-10-30T10:59:32;15.77;;;7.53;;
34900;SDS011;21112;51.976;5.660;2022-10-30T11:02:01;16.63;;;8.40;;
34900;SDS011;21112;51.976;5.660;2022-10-30T11:04:38;16.43;;;6.07;;
34900;SDS011;21112;51.976;5.660;2022-10-30T11:09:32;17.63;;;7.55;;
34900;SDS011;21112;51.976;5.660;2022-10-30T11:11:58;18.40;;;8.48;;
34900;SDS011;21112;51.976;5.660;2022-10-30T11:14:27;19.15;;;8.77;;
34900;SDS011;21112;51.976;5.660;2022-10-30T11:16:58;23.52;;;9.45;;
34900;SDS011;21112;51.976;5.660;2022-10-30T11:19:27;25.05;;;9.85;;
34900;SDS011;21112;51.976;5.660;2022-10-30T11:21:55;20.38;;;8.25;;
34900;SDS011;21112;51.976;5.660;2022-10-30T11:24:27;13.18;;;6.65;;
34900;SDS011;21112;51.976;5.660;2022-10-30T11:26:54;17.08;;;6.65;;
34900;SDS011;21112;51.976;5.660;2022-10-30T11:29:22;19.98;;;8.48;;
34900;SDS011;21112;51.976;5.660;2022-10-30T11:31:57;23.92;;;8.75;;
34900;SDS011;21112;51.976;5.660;2022-10-30T11:34:29;29.60;;;12.25;;
34900;SDS011;21112;51.976;5.660;2022-10-30T11:36:58;30.02;;;11.52;;
34900;SDS011;21112;51.976;5.660;2022-10-30T11:39:25;24.08;;;10.50;;
34900;SDS011;21112;51.976;5.660;2022-10-30T11:42:02;20.80;;;8.45;;
34900;SDS011;21112;51.976;5.660;2022-10-30T11:44:31;19.08;;;7.70;;
34900;SDS011;21112;51.976;5.660;2022-10-30T11:46:58;23.02;;;8.93;;
34900;SDS011;21112;51.976;5.660;2022-10-30T11:49:26;20.30;;;8.60;;
34900;SDS011;21112;51.976;5.660;2022-10-30T11:51:55;23.90;;;8.57;;
34900;SDS011;21112;51.976;5.660;2022-10-30T11:54:23;21.30;;;8.60;;
34900;SDS011;21112;51.976;5.660;2022-10-30T11:56:51;25.75;;;8.98;;
34900;SDS011;21112;51.976;5.660;2022-10-30T11:59:19;19.23;;;8.25;;
34900;SDS011;21112;51.976;5.660;2022-10-30T12:01:56;19.75;;;9.25;;
34900;SDS011;21112;51.976;5.660;2022-10-30T12:04:26;17.08;;;7.85;;
34900;SDS011;21112;51.976;5.660;2022-10-30T12:06:54;19.15;;;7.60;;
34900;SDS011;21112;51.976;5.660;2022-10-30T12:09:35;15.95;;;7.40;;
34900;SDS011;21112;51.976;5.660;2022-10-30T12:12:12;23.08;;;8.27;;
34900;SDS011;21112;51.976;5.660;2022-10-30T12:14:44;24.27;;;9.13;;
34900;SDS011;21112;51.976;5.660;2022-10-30T12:17:12;20.38;;;8.35;;
34900;SDS011;21112;51.976;5.660;2022-10-30T12:19:42;20.55;;;7.90;;
34900;SDS011;21112;51.976;5.660;2022-10-30T12:22:10;25.48;;;8.38;;
34900;SDS011;21112;51.976;5.660;2022-10-30T12:24:49;17.70;;;8.00;;
34900;SDS011;21112;51.976;5.660;2022-10-30T12:27:17;27.75;;;9.07;;
34900;SDS011;21112;51.976;5.660;2022-10-30T12:29:47;17.83;;;7.70;;
34900;SDS011;21112;51.976;5.660;2022-10-30T12:32:17;18.38;;;8.85;;
34900;SDS011;21112;51.976;5.660;2022-10-30T12:34:45;21.13;;;8.77;;
34900;SDS011;21112;51.976;5.660;2022-10-30T12:37:14;22.42;;;8.23;;
34900;SDS011;21112;51.976;5.660;2022-10-30T12:39:52;18.20;;;6.97;;
34900;SDS011;21112;51.976;5.660;2022-10-30T12:42:20;24.23;;;8.27;;
34900;SDS011;21112;51.976;5.660;2022-10-30T12:44:50;20.70;;;8.68;;
34900;SDS011;21112;51.976;5.660;2022-10-30T12:47:20;19.35;;;7.15;;
34900;SDS011;21112;51.976;5.660;2022-10-30T12:49:49;21.02;;;8.38;;
34900;SDS011;21112;51.976;5.660;2022-10-30T12:52:17;25.30;;;8.98;;
34900;SDS011;21112;51.976;5.660;2022-10-30T12:54:46;24.25;;;7.90;;
34900;SDS011;21112;51.976;5.660;2022-10-30T12:57:17;20.48;;;8.95;;
34900;SDS011;21112;51.976;5.660;2022-10-30T12:59:49;19.23;;;8.10;;
34900;SDS011;21112;51.976;5.660;2022-10-30T13:02:20;25.55;;;8.73;;
34900;SDS011;21112;51.976;5.660;2022-10-30T13:04:50;20.80;;;7.45;;
34900;SDS011;21112;51.976;5.660;2022-10-30T13:07:21;15.88;;;7.40;;
34900;SDS011;21112;51.976;5.660;2022-10-30T13:10:00;18.45;;;8.43;;
34900;SDS011;21112;51.976;5.660;2022-10-30T13:12:31;19.13;;;10.02;;
34900;SDS011;21112;51.976;5.660;2022-10-30T13:15:01;20.33;;;8.45;;
34900;SDS011;21112;51.976;5.660;2022-10-30T13:17:29;15.90;;;8.27;;
34900;SDS011;21112;51.976;5.660;2022-10-30T13:19:55;18.98;;;7.72;;
34900;SDS011;21112;51.976;5.660;2022-10-30T13:22:23;22.95;;;8.48;;
34900;SDS011;21112;51.976;5.660;2022-10-30T13:24:53;32.17;;;10.40;;
34900;SDS011;21112;51.976;5.660;2022-10-30T13:27:23;21.48;;;10.20;;
34900;SDS011;21112;51.976;5.660;2022-10-30T13:29:55;14.82;;;7.00;;
34900;SDS011;21112;51.976;5.660;2022-10-30T13:32:28;19.95;;;8.85;;
34900;SDS011;21112;51.976;5.660;2022-10-30T13:34:59;14.75;;;7.32;;
34900;SDS011;21112;51.976;5.660;2022-10-30T13:37:30;25.17;;;9.48;;
34900;SDS011;21112;51.976;5.660;2022-10-30T13:40:01;18.13;;;7.60;;
34900;SDS011;21112;51.976;5.660;2022-10-30T13:42:43;22.83;;;9.43;;
34900;SDS011;21112;51.976;5.660;2022-10-30T13:47:57;15.77;;;7.75;;
34900;SDS011;21112;51.976;5.660;2022-10-30T13:50:30;22.15;;;8.93;;
34900;SDS011;21112;51.976;5.660;2022-10-30T13:53:01;26.15;;;10.07;;
34900;SDS011;21112;51.976;5.660;2022-10-30T13:57:59;22.77;;;9.65;;
34900;SDS011;21112;51.976;5.660;2022-10-30T14:00:30;20.33;;;10.18;;
34900;SDS011;21112;51.976;5.660;2022-10-30T14:03:05;22.80;;;10.55;;
34900;SDS011;21112;51.976;5.660;2022-10-30T14:05:36;28.15;;;9.50;;
34900;SDS011;21112;51.976;5.660;2022-10-30T14:08:06;25.45;;;10.32;;
34900;SDS011;21112;51.976;5.660;2022-10-30T14:10:39;26.77;;;9.68;;
34900;SDS011;21112;51.976;5.660;2022-10-30T14:13:12;21.17;;;10.10;;
34900;SDS011;21112;51.976;5.660;2022-10-30T14:15:40;27.25;;;10.57;;
34900;SDS011;21112;51.976;5.660;2022-10-30T14:18:21;24.13;;;9.82;;
34900;SDS011;21112;51.976;5.660;2022-10-30T14:20:49;23.13;;;9.90;;
34900;SDS011;21112;51.976;5.660;2022-10-30T14:23:19;29.48;;;10.23;;
34900;SDS011;21112;51.976;5.660;2022-10-30T14:28:28;20.50;;;10.30;;
34900;SDS011;21112;51.976;5.660;2022-10-30T14:31:00;21.65;;;9.68;;
34900;SDS011;21112;51.976;5.660;2022-10-30T14:33:34;20.80;;;10.05;;
34900;SDS011;21112;51.976;5.660;2022-10-30T14:36:12;24.63;;;11.15;;
34900;SDS011;21112;51.976;5.660;2022-10-30T14:38:39;24.25;;;10.95;;
34900;SDS011;21112;51.976;5.660;2022-10-30T14:41:14;23.75;;;10.77;;
34900;SDS011;21112;51.976;5.660;2022-10-30T14:43:44;27.80;;;11.75;;
34900;SDS011;21112;51.976;5.660;2022-10-30T14:46:15;22.50;;;10.48;;
34900;SDS011;21112;51.976;5.660;2022-10-30T14:48:47;30.83;;;10.60;;
34900;SDS011;21112;51.976;5.660;2022-10-30T14:51:18;27.77;;;10.32;;
34900;SDS011;21112;51.976;5.660;2022-10-30T14:53:51;26.92;;;11.18;;
34900;SDS011;21112;51.976;5.660;2022-10-30T14:56:22;25.45;;;11.40;;
34900;SDS011;21112;51.976;5.660;2022-10-30T15:04:36;31.15;;;11.85;;
34900;SDS011;21112;51.976;5.660;2022-10-30T15:07:11;21.38;;;10.25;;
34900;SDS011;21112;51.976;5.660;2022-10-30T15:09:44;21.25;;;9.98;;
34900;SDS011;21112;51.976;5.660;2022-10-30T15:12:32;29.52;;;11.32;;
34900;SDS011;21112;51.976;5.660;2022-10-30T15:15:00;23.58;;;11.30;;
34900;SDS011;21112;51.976;5.660;2022-10-30T15:17:29;42.90;;;18.53;;
34900;SDS011;21112;51.976;5.660;2022-10-30T15:19:59;21.45;;;11.15;;
34900;SDS011;21112;51.976;5.660;2022-10-30T15:22:29;28.30;;;13.00;;
34900;SDS011;21112;51.976;5.660;2022-10-30T15:24:58;27.00;;;12.02;;